createdAt,value
2023-01-30T00:02:16.095Z,-1.64
2023-01-30T00:04:54.856Z,-1.41
2023-01-30T00:07:36.810Z,-1.34
2023-01-30T00:10:08.449Z,-1.39
2023-01-30T00:12:52.462Z,-1.14
2023-01-30T00:15:25.032Z,-1.09
2023-01-30T00:17:57.571Z,-1.14
2023-01-30T00:20:45.992Z,-1.13
2023-01-30T00:23:35.295Z,-1.17
2023-01-30T09:11:04.693Z,-0.06
2023-01-30T09:13:32.246Z,-0.06
2023-01-30T09:15:59.059Z,0.02
2023-01-30T09:18:26.229Z,0.05
2023-01-30T09:20:53.902Z,0.15
2023-01-30T09:23:20.580Z,0.16
2023-01-30T09:25:47.764Z,0.27
2023-01-30T09:28:14.435Z,0.34
2023-01-30T09:30:41.183Z,0.40
2023-01-30T09:33:08.110Z,0.46
2023-01-30T09:35:34.771Z,0.56
2023-01-30T09:38:01.635Z,0.45
2023-01-30T09:40:31.582Z,0.61
2023-01-30T09:43:11.294Z,0.63
2023-01-30T09:45:45.597Z,0.66
2023-01-30T09:48:39.662Z,0.60
2023-01-30T09:51:54.052Z,0.56
2023-01-30T09:54:33.548Z,0.50
2023-01-30T09:57:21.857Z,0.51
2023-01-30T10:00:13.765Z,0.53
2023-01-30T10:02:53.863Z,0.56
2023-01-30T10:05:21.983Z,0.58
2023-01-30T10:08:05.132Z,0.58
2023-01-30T10:10:57.877Z,0.56
2023-01-30T10:14:00.485Z,0.63
2023-01-30T10:16:29.810Z,0.67
2023-01-30T10:19:26.077Z,0.70
2023-01-30T10:22:16.915Z,0.65
2023-01-30T10:24:59.373Z,0.69
2023-01-30T10:27:29.215Z,0.73
2023-01-30T10:29:59.214Z,0.77
2023-01-30T10:32:31.913Z,0.75
2023-01-30T10:35:06.347Z,0.75
2023-01-30T10:37:40.921Z,0.74
2023-01-30T10:40:34.964Z,0.71
2023-01-30T10:43:26.161Z,0.76
2023-01-30T10:46:03.059Z,0.83
2023-01-30T10:48:43.333Z,0.85
2023-01-30T10:51:18.673Z,0.86
2023-01-30T10:53:53.306Z,0.92
2023-01-30T10:56:30.112Z,1.00
2023-01-30T10:59:15.839Z,1.06
2023-01-30T11:01:54.724Z,1.06
2023-01-30T11:04:34.000Z,1.13
2023-01-30T11:07:02.023Z,1.23
2023-01-30T11:09:43.862Z,1.25
2023-01-30T11:12:11.102Z,1.26
2023-01-30T11:15:04.871Z,1.28
2023-01-30T11:17:37.251Z,1.30
2023-01-30T11:20:13.477Z,1.30
2023-01-30T11:22:50.434Z,1.31
2023-01-30T11:25:20.992Z,1.23
2023-01-30T11:28:15.574Z,1.25
2023-01-30T11:30:42.249Z,1.21
2023-01-30T11:33:17.952Z,1.29
2023-01-30T11:35:55.292Z,1.32
2023-01-30T11:38:25.197Z,1.33
2023-01-30T11:41:03.570Z,1.30
2023-01-30T11:43:30.693Z,1.20
2023-01-30T11:45:58.996Z,1.24
2023-01-30T11:49:01.891Z,1.10
2023-01-30T11:51:23.822Z,0.98
2023-01-30T11:53:57.593Z,0.88
2023-01-30T11:56:32.528Z,0.75
2023-01-30T11:59:02.018Z,0.57
2023-01-30T12:01:31.911Z,0.50
2023-01-30T12:03:59.575Z,0.32
2023-01-30T12:06:32.002Z,0.30
2023-01-30T12:08:59.261Z,0.17
2023-01-30T12:11:30.073Z,0.15
2023-01-30T12:14:07.883Z,0.03
2023-01-30T12:16:54.608Z,0.03
2023-01-30T12:19:45.368Z,-0.06
2023-01-30T12:22:32.523Z,-0.07
2023-01-30T12:25:01.253Z,-0.14
2023-01-30T12:27:49.397Z,-0.22
2023-01-30T12:30:27.262Z,-0.27
2023-01-30T12:35:47.836Z,-0.34
2023-01-30T12:38:27.932Z,-0.34
2023-01-30T12:41:11.201Z,-0.31
2023-01-30T12:44:08.691Z,-0.30
2023-01-30T12:46:54.415Z,-0.34
2023-01-30T12:49:52.990Z,-0.36
2023-01-30T12:52:33.348Z,-0.36
2023-01-30T12:55:28.134Z,-0.36
2023-01-30T12:58:03.585Z,-0.36
2023-01-30T13:00:47.394Z,-0.35
2023-01-30T13:03:26.403Z,-0.41
2023-01-30T13:06:10.825Z,-0.55
2023-01-30T13:08:37.821Z,-0.44
2023-01-30T13:11:31.038Z,-0.43
2023-01-30T13:14:35.369Z,-0.43
2023-01-30T13:17:38.241Z,-0.46
2023-01-30T13:20:14.074Z,-0.47
2023-01-30T13:22:59.378Z,-0.47
2023-01-30T13:25:43.247Z,-0.47
2023-01-30T13:28:18.368Z,-0.50
2023-01-30T13:30:48.380Z,-0.49
2023-01-30T13:33:33.944Z,-0.44
2023-01-30T13:36:10.197Z,-0.45
2023-01-30T13:38:45.543Z,-0.50
2023-01-30T13:41:16.924Z,-0.51
2023-01-30T13:43:50.541Z,-0.55
2023-01-30T13:46:23.897Z,-0.54
2023-01-30T13:49:15.335Z,-0.50
2023-01-30T13:51:48.382Z,-0.47
2023-01-30T13:54:47.810Z,-0.42
2023-01-30T13:57:31.575Z,-0.40
2023-01-30T14:00:19.949Z,-0.41
2023-01-30T14:03:08.886Z,-0.33
2023-01-30T14:06:12.613Z,-0.39
2023-01-30T14:08:51.896Z,-0.24
2023-01-30T14:11:44.769Z,-0.22
2023-01-30T14:14:30.350Z,-0.18
2023-01-30T14:17:16.827Z,-0.22
2023-01-30T14:20:17.327Z,-0.19
2023-01-30T14:22:49.609Z,-0.20
2023-01-30T14:25:25.372Z,-0.21
2023-01-30T14:28:13.364Z,-0.27
2023-01-30T14:30:49.012Z,-0.17
2023-01-30T14:33:21.694Z,-0.18
2023-01-30T14:36:09.697Z,-0.25
2023-01-30T14:38:38.574Z,-0.21
2023-01-30T14:41:05.360Z,-0.21
2023-01-30T14:43:37.877Z,-0.20
2023-01-30T14:46:08.906Z,-0.31
2023-01-30T14:48:38.853Z,-0.23
2023-01-30T14:51:34.439Z,-0.22
2023-01-30T14:54:11.206Z,-0.22
2023-01-30T14:56:56.342Z,-0.23
2023-01-30T14:59:39.770Z,-0.28
2023-01-30T15:02:13.381Z,-0.23
2023-01-30T15:04:45.519Z,-0.22
2023-01-30T15:07:16.807Z,-0.23
2023-01-30T15:09:52.315Z,-0.25
2023-01-30T15:12:22.107Z,-0.20
2023-01-30T15:15:27.192Z,-0.26
2023-01-30T15:18:08.268Z,-0.29
2023-01-30T15:20:52.122Z,-0.32
2023-01-30T15:23:18.702Z,-0.34
2023-01-30T15:26:02.528Z,-0.35
2023-01-30T15:28:37.972Z,-0.35
2023-01-30T15:31:11.146Z,-0.34
2023-01-30T15:33:49.249Z,-0.37
2023-01-30T15:36:32.351Z,-0.33
2023-01-30T15:39:25.121Z,-0.29
2023-01-30T15:41:53.435Z,-0.29
2023-01-30T15:44:50.091Z,-0.27
2023-01-30T15:47:22.932Z,-0.25
2023-01-30T15:50:01.599Z,-0.25
2023-01-30T15:52:46.643Z,-0.29
2023-01-30T15:55:18.052Z,-0.26
2023-01-30T15:57:50.389Z,-0.33
2023-01-30T16:00:39.341Z,-0.34
2023-01-30T16:03:13.444Z,-0.35
2023-01-30T16:05:46.896Z,-0.35
2023-01-30T16:08:25.446Z,-0.45
2023-01-30T16:10:52.767Z,-0.39
2023-01-30T16:13:21.186Z,-0.44
2023-01-30T16:15:54.378Z,-0.48
2023-01-30T16:18:20.959Z,-0.53
2023-01-30T16:21:02.717Z,-0.60
2023-01-30T16:23:37.407Z,-0.64
2023-01-30T16:26:07.899Z,-0.73
2023-01-30T16:28:34.869Z,-0.85
2023-01-30T16:31:04.771Z,-0.83
2023-01-30T16:33:38.749Z,-0.93
2023-01-30T16:36:26.694Z,-0.91
2023-01-30T16:38:55.513Z,-0.96
2023-01-30T16:41:34.323Z,-0.99
2023-01-30T16:44:22.167Z,-1.06
2023-01-30T16:47:25.478Z,-1.06
2023-01-30T16:49:54.799Z,-1.10
2023-01-30T16:52:37.128Z,-1.11
2023-01-30T16:55:17.546Z,-1.13
2023-01-30T16:57:54.593Z,-1.13
2023-01-30T17:00:28.867Z,-1.11
2023-01-30T17:03:01.829Z,-1.11
2023-01-30T17:05:39.759Z,-1.12
2023-01-30T17:08:26.765Z,-1.13
2023-01-30T17:10:55.232Z,-1.10
2023-01-30T17:13:44.029Z,-1.09
2023-01-30T17:16:30.689Z,-1.08
2023-01-30T17:18:58.366Z,-1.08
2023-01-30T17:21:28.492Z,-1.08
2023-01-30T17:23:59.821Z,-1.07
2023-01-30T17:26:39.536Z,-1.05
2023-01-30T17:29:11.892Z,-1.10
2023-01-30T17:31:50.123Z,-1.10
2023-01-30T17:34:18.301Z,-1.14
2023-01-30T17:36:46.680Z,-1.11
2023-01-30T17:39:17.180Z,-1.14
2023-01-30T17:41:45.605Z,-1.14
2023-01-30T17:44:12.640Z,-1.20
2023-01-30T17:46:49.612Z,-1.25
2023-01-30T17:49:18.573Z,-1.33
2023-01-30T17:51:45.390Z,-1.29
2023-01-30T17:54:13.209Z,-1.28
2023-01-30T17:56:45.475Z,-1.26
2023-01-30T17:59:18.105Z,-1.26
2023-01-30T18:01:48.145Z,-1.25
2023-01-30T18:04:14.869Z,-1.27
2023-01-30T18:06:44.024Z,-1.24
2023-01-30T18:09:29.968Z,-1.17
2023-01-30T18:11:57.856Z,-1.11
2023-01-30T18:14:24.511Z,-1.16
2023-01-30T18:16:51.527Z,-1.11
2023-01-30T18:19:18.776Z,-1.14
2023-01-30T18:21:45.705Z,-1.16
2023-01-30T18:24:13.799Z,-1.14
2023-01-30T18:26:41.500Z,-1.16
2023-01-30T18:29:11.957Z,-1.16
2023-01-30T18:31:40.567Z,-1.20
2023-01-30T18:34:09.878Z,-1.15
2023-01-30T18:36:37.296Z,-1.13
2023-01-30T18:39:05.609Z,-1.16
2023-01-30T18:41:32.728Z,-1.10
2023-01-30T18:44:02.576Z,-1.11
2023-01-30T18:46:30.058Z,-1.07
2023-01-30T18:48:57.616Z,-1.04
2023-01-30T18:51:27.124Z,-1.03
2023-01-30T18:53:54.611Z,-1.07
2023-01-30T18:56:27.014Z,-1.01
2023-01-30T18:58:56.314Z,-0.99
2023-01-30T19:01:27.996Z,-1.04
2023-01-30T19:03:59.942Z,-0.99
2023-01-30T19:06:27.722Z,-1.03
2023-01-30T19:08:56.212Z,-1.22
2023-01-30T19:11:42.374Z,-1.02
2023-01-30T19:14:09.859Z,-1.01
2023-01-30T19:16:38.583Z,-1.03
2023-01-30T19:19:06.665Z,-1.04
2023-01-30T19:21:40.234Z,-1.03
2023-01-30T19:24:08.400Z,-1.05
2023-01-30T19:26:35.475Z,-1.07
2023-01-30T19:29:02.805Z,-1.06
2023-01-30T19:31:29.629Z,-0.98
2023-01-30T19:34:01.368Z,-0.93
2023-01-30T19:36:31.807Z,-0.91
2023-01-30T19:38:59.874Z,-0.91
2023-01-30T19:41:29.058Z,-0.92
2023-01-30T19:43:57.136Z,-0.94
2023-01-30T19:46:24.307Z,-1.01
2023-01-30T19:51:32.706Z,-1.02
2023-01-30T19:54:02.533Z,-0.90
2023-01-30T19:56:30.498Z,-1.35
2023-01-30T19:59:00.956Z,-0.90
2023-01-30T20:01:33.059Z,-0.98
2023-01-30T20:04:04.455Z,-1.14
2023-01-30T20:06:34.366Z,-0.96
2023-01-30T20:09:07.709Z,-1.11
2023-01-30T20:11:37.555Z,-0.99
2023-01-30T20:14:07.275Z,-0.90
2023-01-30T20:16:36.401Z,-0.91
2023-01-30T20:19:06.340Z,-0.91
2023-01-30T20:21:36.554Z,-0.99
2023-01-30T20:24:06.988Z,-0.89
2023-01-30T20:26:37.456Z,-1.15
2023-01-30T20:29:06.888Z,-0.99
2023-01-30T20:31:36.201Z,-1.14
2023-01-30T20:34:06.105Z,-1.14
2023-01-30T20:36:33.359Z,-0.90
2023-01-30T20:39:06.446Z,-0.92
2023-01-30T20:41:35.655Z,-0.90
2023-01-30T20:44:03.453Z,-0.87
2023-01-30T20:46:41.647Z,-0.84
2023-01-30T20:49:19.682Z,-0.83
2023-01-30T20:51:50.308Z,-0.83
2023-01-30T20:54:18.136Z,-0.84
2023-01-30T20:56:47.650Z,-0.85
2023-01-30T20:59:17.436Z,-0.83
2023-01-30T21:01:44.628Z,-0.90
2023-01-30T21:04:13.762Z,-0.88
2023-01-30T21:06:45.678Z,-0.92
2023-01-30T21:09:19.213Z,-0.84
2023-01-30T21:11:46.534Z,-0.83
2023-01-30T21:14:13.559Z,-0.83
2023-01-30T21:16:40.743Z,-0.84
2023-01-30T21:19:14.275Z,-0.84
2023-01-30T21:21:55.142Z,-0.86
2023-01-30T21:24:25.060Z,-0.84
2023-01-30T21:26:52.896Z,-0.85
2023-01-30T21:29:22.486Z,-0.86
2023-01-30T21:31:50.267Z,-0.89
2023-01-30T21:34:17.155Z,-0.89
2023-01-30T21:36:43.761Z,-0.91
2023-01-30T21:39:32.200Z,-0.88
2023-01-30T21:42:17.714Z,-0.90
2023-01-30T21:44:44.503Z,-0.86
2023-01-30T21:47:11.108Z,-0.83
2023-01-30T21:49:37.842Z,-0.84
2023-01-30T21:52:04.770Z,-0.92
2023-01-30T21:54:31.395Z,-0.83
2023-01-30T21:56:58.019Z,-0.83
2023-01-30T21:59:24.800Z,-0.84
2023-01-30T22:01:51.503Z,-0.87
2023-01-30T22:04:19.519Z,-0.85
2023-01-30T22:06:46.212Z,-0.83
2023-01-30T22:09:14.701Z,-0.78
2023-01-30T22:11:42.260Z,-0.77
2023-01-30T22:14:09.540Z,-0.78
2023-01-30T22:16:36.326Z,-0.84
2023-01-30T22:19:04.696Z,-0.85
2023-01-30T22:21:36.310Z,-0.86
2023-01-30T22:24:05.659Z,-0.89
2023-01-30T22:26:32.664Z,-0.92
2023-01-30T22:29:01.004Z,-0.86
2023-01-30T22:31:31.838Z,-0.88
2023-01-30T22:33:58.654Z,-0.90
2023-01-30T22:36:28.077Z,-0.86
2023-01-30T22:38:55.604Z,-0.90
2023-01-30T22:41:24.888Z,-0.88
2023-01-30T22:43:57.142Z,-0.93
2023-01-30T22:46:30.157Z,-0.97
2023-01-30T22:48:57.485Z,-0.96
2023-01-30T22:51:26.622Z,-0.93
2023-01-30T22:53:55.867Z,-0.92
2023-01-30T22:56:34.248Z,-0.89
2023-01-30T22:59:00.900Z,-0.94
2023-01-30T23:01:33.010Z,-0.91
2023-01-30T23:04:10.241Z,-0.93
2023-01-30T23:06:36.961Z,-1.05
2023-01-30T23:09:05.078Z,-0.96
2023-01-30T23:11:41.459Z,-0.90
2023-01-30T23:14:14.580Z,-0.92
2023-01-30T23:16:43.767Z,-0.89
2023-01-30T23:19:11.996Z,-0.93
2023-01-30T23:21:45.400Z,-0.98
2023-01-30T23:24:21.638Z,-1.00
2023-01-30T23:26:51.783Z,-0.99
2023-01-30T23:29:20.453Z,-1.00
2023-01-30T23:31:47.922Z,-1.03
2023-01-30T23:34:17.870Z,-1.01
2023-01-30T23:36:45.415Z,-1.01
2023-01-30T23:39:13.594Z,-1.06
2023-01-30T23:41:41.622Z,-1.10
2023-01-30T23:44:08.855Z,-1.11
2023-01-30T23:46:41.047Z,-1.10
2023-01-30T23:49:10.788Z,-1.06
2023-01-30T23:51:40.786Z,-1.05
2023-01-30T23:54:08.263Z,-1.13
2023-01-30T23:56:38.763Z,-0.99
2023-01-30T23:59:06.189Z,-1.01
